Terminal Aerodrome Forecast
Issued by NWS

Home | Current Version | Previous Version | Text Only | Print | Product List | Glossary On
Versions: 1 2 3 4 5 6 7 8 9 10 11 12
000
FTUS43 KLSX 151121
TAFUIN
TAF
KUIN 151121Z 1512/1612 31017G30KT P6SM OVC025
     FM151700 32014G24KT P6SM SCT030
     FM152300 31008KT P6SM FEW250
     FM160600 31004KT P6SM SKC=

USA.gov is the U.S. government's official web portal to all federal, state and local government web resources and services.